Orlando, Florida
Traffic Map
Current Weather Conditions
Orlando, Florida
Overcast
Overcast
79°
Feels Like: 83°
Wind Chill: 79° Ceiling: 1500
Heat Index: 83° Visibility: 10mi
Dew Point: 75° Wind: 15mph
Humidity: 88% Direction: 160° (SSE)
Pressure: 29.83in Gusts: 0mph
Raw Report DataKORL 280453Z AUTO 16013KT 10SM BKN015 OVC021 26/24 A2983 RMK AO2 SLP103 T02610239 402830217
Traffic Incident Summary
Active as of:
Severity:
Category:
InformationThere was an issue retrieving the traffic information for this location. Please try a different location or try again shortly.
Advertisements